Latest Weather Observations for Maryborough

IDQ60801

Issued at 5:02 pm EST Wednesday 15 August 2018 (issued every 10 minutes, with the page automatically refreshed every 10 minutes)

About weather observations | Map of weather stations | Latest weather observations for QLD | Other Formats
Station Details ID: 040126 Name: MARYBOROUGH Lat: -25.51 Lon: 152.72 Height: 8.98 m
Data from the previous 72 hours. | See also: Recent months at Maryborough
Date/Time
EST
Temp
°C
App
Temp
°C
Dew
Point
°C
Rel
Hum
%
Delta-T
°C
Wind Press
QNH
hPa
Press
MSL
hPa
Rain since
9am
mm
Dir  Spd
km/h
Gust
km/h
Spd
kts
Gust
kts
15/05:00pm 20.0 17.4 9.3 50 5.7 N 13 19 7 10 1018.1 - 0.0
15/04:30pm 21.2 18.3 9.8 48 6.1 N 15 24 8 13 1018.2 - 0.0
15/04:00pm 22.0 18.3 9.5 45 6.7 N 19 28 10 15 1018.1 - 0.0
15/03:30pm 23.1 19.9 9.8 43 7.2 N 17 26 9 14 1017.9 - 0.0
15/03:00pm 23.9 21.0 9.5 40 7.8 N 15 26 8 14 1017.9 1017.9 0.0
15/02:30pm 24.9 21.7 10.0 39 8.2 N 17 24 9 13 1017.9 - 0.0
15/02:00pm 24.9 22.8 9.6 38 8.4 N 11 24 6 13 1018.3 - 0.0
15/01:30pm 25.0 22.3 8.9 36 8.7 N 13 24 7 13 1018.9 - 0.0
15/01:00pm 24.6 21.2 5.9 30 9.6 N 13 20 7 11 1019.5 - 0.0
15/12:30pm 24.5 21.6 6.3 31 9.4 NNW 11 13 6 7 1020.1 - 0.0
15/12:00pm 23.6 21.0 7.7 36 8.3 NNW 11 19 6 10 1020.7 1020.7 0.0
15/11:30am 23.3 20.4 8.2 38 8.0 NNW 13 22 7 12 1021.3 - 0.0
15/11:00am 22.7 19.4 9.5 43 7.1 NW 17 24 9 13 1021.9 - 0.0
15/10:30am 21.7 19.6 11.1 51 5.9 NNW 13 19 7 10 1022.4 - 0.0
15/10:00am 20.6 18.6 11.5 56 5.0 NW 13 20 7 11 1022.8 - 0.0
15/09:30am 19.5 18.8 11.5 60 4.4 NW 6 13 3 7 1023.0 - 0.0
15/09:00am 16.8 15.6 10.4 66 3.4 W 7 11 4 6 1023.2 1023.2 0.0
15/08:30am 14.1 13.1 10.3 78 2.0 SSW 6 7 3 4 1023.3 - 0.0
15/08:00am 11.1 10.6 10.6 97 0.3 NE 4 7 2 4 1023.1 - 0.0
15/07:30am 8.1 7.6 8.0 99 0.0 CALM 0 0 0 0 1023.1 - 0.0
15/07:00am 5.0 3.8 4.6 97 0.2 CALM 0 0 0 0 1022.9 - 0.0
15/06:34am 4.0 2.6 3.3 95 0.3 CALM 0 0 0 0 1022.5 - 0.0
15/06:30am 4.0 2.6 3.3 95 0.3 CALM 0 0 0 0 1022.5 - 0.0
15/06:05am 3.6 2.1 2.9 95 0.3 CALM 0 0 0 0 1022.2 - 0.0
15/06:00am 3.9 2.4 3.2 95 0.3 CALM 0 0 0 0 1022.2 1022.2 0.0
15/05:52am 4.0 2.6 3.3 95 0.3 CALM 0 0 0 0 1022.1 - 0.0
15/05:30am 3.9 2.4 3.0 94 0.4 CALM 0 0 0 0 1022.0 - 0.0
15/05:00am 3.7 2.2 2.8 94 0.4 CALM 0 0 0 0 1021.8 - 0.0
15/04:44am 4.4 3.0 3.7 95 0.3 CALM 0 0 0 0 1021.8 - 0.0
15/04:30am 4.8 3.5 4.1 95 0.3 CALM 0 0 0 0 1021.7 - 0.0
15/04:00am 4.8 3.5 3.9 94 0.4 CALM 0 0 0 0 1021.6 - 0.0
15/03:47am 4.9 3.6 4.0 94 0.4 CALM 0 0 0 0 1021.6 - 0.0
15/03:30am 4.9 3.6 3.9 93 0.4 CALM 0 0 0 0 1021.7 - 0.0
15/03:14am 5.1 3.8 4.2 94 0.4 CALM 0 0 0 0 1021.7 - 0.0
15/03:00am 5.8 4.7 5.1 95 0.3 CALM 0 0 0 0 1021.9 1021.9 0.0
15/02:30am 6.2 5.2 5.6 96 0.3 CALM 0 0 0 0 1022.1 - 0.0
15/02:00am 6.3 5.3 5.6 95 0.3 CALM 0 0 0 0 1022.3 - 0.0
15/01:30am 6.2 5.1 5.3 94 0.4 CALM 0 0 0 0 1022.5 - 0.0
15/01:10am 6.7 5.7 5.8 94 0.4 CALM 0 0 0 0 1022.5 - 0.0
15/01:00am 6.7 5.7 5.7 93 0.4 CALM 0 0 0 0 1022.6 - 0.0
15/12:47am 6.1 5.0 5.1 93 0.4 CALM 0 0 0 0 1022.7 - 0.0
15/12:30am 7.2 6.4 6.3 94 0.4 CALM 0 0 0 0 1022.8 - 0.0
15/12:00am 7.4 6.6 6.3 93 0.5 CALM 0 0 0 0 1022.9 1022.9 0.0
 
Date/Time
EST
Temp
°C
App
Temp
°C
Dew
Point
°C
Rel
Hum
%
Delta-T
°C
Wind Press
QNH
hPa
Press
MSL
hPa
Rain since
9am
mm
Dir  Spd
km/h
Gust
km/h
Spd
kts
Gust
kts
14/11:30pm 8.1 7.5 7.2 94 0.4 CALM 0 0 0 0 1023.0 - 0.0
14/11:00pm 8.1 7.4 6.9 92 0.6 CALM 0 0 0 0 1023.0 - 0.0
14/10:30pm 8.7 8.1 7.6 93 0.5 CALM 0 0 0 0 1023.2 - 0.0
14/10:00pm 9.4 9.1 8.5 94 0.4 CALM 0 0 0 0 1023.3 - 0.0
14/09:30pm 8.9 8.3 7.2 89 0.8 CALM 0 0 0 0 1023.1 - 0.0
14/09:00pm 10.1 9.8 8.7 91 0.7 CALM 0 0 0 0 1023.3 1023.3 0.0
14/08:30pm 10.6 10.4 9.0 90 0.8 CALM 0 0 0 0 1023.4 - 0.0
14/08:00pm 11.1 10.1 9.0 87 1.0 NE 4 6 2 3 1023.4 - 0.0
14/07:30pm 11.6 11.3 8.6 82 1.5 CALM 0 0 0 0 1023.0 - 0.0
14/07:00pm 13.0 11.7 9.3 78 1.9 NE 6 9 3 5 1022.4 - 0.0
14/06:30pm 14.4 12.8 8.8 69 2.8 N 7 9 4 5 1022.1 - 0.0
14/06:00pm 16.7 15.1 8.9 60 4.0 NE 7 11 4 6 1021.9 1021.9 0.0
14/05:30pm 18.3 16.7 8.6 53 5.0 NE 7 11 4 6 1021.6 - 0.0
14/05:00pm 20.0 17.9 8.4 47 6.0 NE 9 15 5 8 1021.6 - 0.0
14/04:30pm 21.6 19.4 7.8 41 7.2 ENE 9 15 5 8 1021.3 - 0.0
14/04:00pm 22.9 19.7 2.9 27 9.6 NE 9 13 5 7 1021.2 - 0.0
14/03:30pm 23.0 19.7 2.5 26 9.7 NE 9 15 5 8 1021.1 - 0.0
14/03:00pm 23.5 20.1 1.8 24 10.2 NNW 9 15 5 8 1021.1 1021.1 0.0
14/02:30pm 23.2 19.5 2.1 25 10.0 ENE 11 19 6 10 1021.2 - 0.0
14/02:00pm 23.6 19.9 2.4 25 10.1 N 11 17 6 9 1021.4 - 0.0
14/01:30pm 23.3 20.0 2.2 25 10.0 E 9 17 5 9 1021.8 - 0.0
14/01:00pm 23.6 20.6 4.0 28 9.6 NNE 9 15 5 8 1022.2 - 0.0
14/12:30pm 22.6 19.9 3.7 29 9.2 ENE 7 15 4 8 1022.8 - 0.0
14/12:00pm 21.9 19.2 3.6 30 8.8 NNE 7 11 4 6 1023.5 1023.5 0.0
14/11:30am 21.8 19.3 4.8 33 8.4 NE 7 11 4 6 1024.3 - 0.0
14/11:00am 20.7 18.4 4.7 35 7.8 SSE 6 11 3 6 1024.9 - 0.0
14/10:30am 19.5 16.9 3.2 34 7.6 S 6 9 3 5 1025.1 - 0.0
14/10:00am 18.6 14.1 2.0 33 7.5 SSW 15 20 8 11 1025.4 - 0.0
14/09:30am 16.8 13.1 2.4 38 6.5 SW 11 15 6 8 1025.4 - 0.0
14/09:00am 15.1 11.6 3.6 46 5.2 SSW 11 15 6 8 1025.2 1025.2 0.0
14/08:30am 12.8 9.5 4.3 56 3.9 SW 11 17 6 9 1025.3 - 0.0
14/08:00am 9.0 7.5 4.8 75 1.9 SW 2 11 1 6 1025.0 - 0.0
14/07:30am 6.3 5.4 5.9 97 0.2 CALM 0 0 0 0 1024.5 - 0.0
14/07:00am 3.5 2.0 2.8 95 0.3 CALM 0 0 0 0 1024.5 - 0.0
14/06:30am 2.5 0.7 1.5 93 0.4 CALM 0 0 0 0 1023.9 - 0.0
14/06:00am 3.2 1.6 2.3 94 0.4 CALM 0 0 0 0 1023.7 1023.7 0.0
14/05:30am 3.9 1.2 2.9 93 0.4 SW 6 7 3 4 1023.5 - 0.0
14/05:00am 4.3 2.9 3.4 94 0.4 CALM 0 0 0 0 1023.3 - 0.0
14/04:30am 4.4 1.8 3.4 93 0.4 SW 6 7 3 4 1022.9 - 0.0
14/04:26am 4.5 2.3 3.5 93 0.4 SW 4 7 2 4 1022.9 - 0.0
14/04:05am 4.6 3.2 3.4 92 0.5 CALM 0 0 0 0 1022.8 - 0.0
14/04:00am 4.9 3.5 3.6 91 0.5 CALM 0 6 0 3 1022.8 - 0.0
14/03:30am 6.2 3.9 4.8 91 0.6 SW 6 7 3 4 1022.9 - 0.0
14/03:00am 5.8 3.4 4.1 89 0.7 SW 6 7 3 4 1023.0 1023.0 0.0
14/02:30am 6.7 4.4 5.0 89 0.7 SW 6 7 3 4 1022.8 - 0.0
14/02:00am 6.8 4.5 4.8 87 0.9 SW 6 7 3 4 1023.2 - 0.0
14/01:30am 7.9 5.4 5.0 82 1.3 SW 7 9 4 5 1023.4 - 0.0
14/01:00am 9.2 6.8 6.8 85 1.1 SW 9 13 5 7 1023.6 - 0.0
14/12:30am 8.1 5.9 6.4 89 0.8 SW 7 9 4 5 1023.7 - 0.0
14/12:00am 8.4 6.9 6.9 90 0.7 E 4 9 2 5 1023.6 1023.6 0.0
 
Date/Time
EST
Temp
°C
App
Temp
°C
Dew
Point
°C
Rel
Hum
%
Delta-T
°C
Wind Press
QNH
hPa
Press
MSL
hPa
Rain since
9am
mm
Dir  Spd
km/h
Gust
km/h
Spd
kts
Gust
kts
13/11:30pm 8.6 6.6 7.2 91 0.7 E 7 9 4 5 1023.6 - 0.0
13/11:00pm 8.5 6.6 7.6 94 0.4 E 7 11 4 6 1023.8 - 0.0
13/10:30pm 7.4 6.5 6.0 91 0.6 CALM 0 0 0 0 1023.6 - 0.0
13/10:00pm 8.4 7.8 7.3 93 0.5 CALM 0 0 0 0 1023.5 - 0.0
13/09:30pm 8.2 7.3 6.2 87 0.9 CALM 0 0 0 0 1023.4 - 0.0
13/09:00pm 9.0 8.3 7.1 88 0.9 CALM 0 0 0 0 1023.4 1023.4 0.0
13/08:30pm 9.3 8.6 6.9 85 1.1 CALM 0 0 0 0 1023.2 - 0.0
13/08:00pm 9.9 9.4 7.7 86 1.1 CALM 0 0 0 0 1023.0 - 0.0
13/07:30pm 10.6 10.1 7.8 83 1.4 CALM 0 0 0 0 1022.7 - 0.0
13/07:00pm 11.2 10.6 7.3 77 1.9 CALM 0 0 0 0 1022.2 - 0.0
13/06:30pm 12.6 10.9 7.5 71 2.5 E 6 7 3 4 1021.7 - 0.0
13/06:00pm 15.4 13.8 7.9 61 3.7 E 6 9 3 5 1021.3 1021.3 0.0
13/05:30pm 17.8 16.0 8.1 53 5.0 E 7 13 4 7 1020.9 - 0.0
13/05:00pm 19.9 16.9 4.0 35 7.6 E 9 15 5 8 1020.7 - 0.0
13/04:30pm 21.6 17.4 -3.7 18 10.5 S 9 13 5 7 1020.4 - 0.0
13/04:00pm 22.2 18.5 -2.5 19 10.6 SSE 7 13 4 7 1020.0 - 0.0
13/03:30pm 22.8 19.3 -1.3 20 10.6 W 7 11 4 6 1019.8 - 0.0
13/03:00pm 22.7 19.6 -0.1 22 10.2 SSW 6 11 3 6 1019.8 1019.8 0.0
13/02:30pm 22.3 18.2 -0.4 22 10.1 SSW 11 19 6 10 1019.8 - 0.0
13/02:00pm 22.2 18.1 0.1 23 10.0 SW 11 15 6 8 1019.9 - 0.0
13/01:30pm 22.8 19.0 1.8 25 9.8 SSE 11 17 6 9 1020.1 - 0.0
13/01:00pm 21.6 17.9 2.3 28 9.0 S 11 17 6 9 1020.4 - 0.0
13/12:30pm 21.5 18.2 2.7 29 8.9 S 9 19 5 10 1020.8 - 0.0
13/12:00pm 21.4 17.2 3.6 31 8.5 SSE 15 24 8 13 1021.3 1021.3 0.0
13/11:30am 21.7 16.7 1.4 26 9.3 S 17 24 9 13 1021.8 - 0.0
13/11:00am 20.5 14.8 -0.7 24 9.3 SSW 19 28 10 15 1022.1 - 0.0
13/10:30am 19.4 13.3 -2.2 23 9.1 S 20 28 11 15 1022.5 - 0.0
13/10:00am 18.3 12.2 -2.6 24 8.6 SSW 20 28 11 15 1022.6 - 0.0
13/09:30am 17.1 10.9 -3.1 25 8.1 S 20 30 11 16 1022.6 - 0.0
13/09:00am 15.7 10.4 -3.7 26 7.6 SSW 15 22 8 12 1022.5 1022.5 0.0
13/08:30am 13.7 8.4 -3.5 30 6.6 SW 15 22 8 12 1022.3 - 0.0
13/08:00am 12.1 6.1 -3.3 34 5.9 SW 19 22 10 12 1022.3 - 0.0
13/07:30am 10.8 4.7 -4.0 35 5.5 SW 19 26 10 14 1021.9 - 0.0
13/07:00am 9.6 3.8 -4.4 37 5.0 SW 17 22 9 12 1021.5 - 0.0
13/06:30am 8.8 3.4 -4.4 39 4.7 SW 15 20 8 11 1021.0 - 0.0
13/06:00am 9.0 3.6 -4.5 38 4.8 SW 15 20 8 11 1020.5 1020.5 0.0
13/05:30am 9.0 3.2 -4.5 38 4.8 SW 17 20 9 11 1020.2 - 0.0
13/05:00am 9.2 3.7 -5.1 36 5.0 SW 15 20 8 11 1020.0 - 0.0
13/04:30am 10.0 4.2 -5.1 34 5.4 SW 17 20 9 11 1019.8 - 0.0
13/04:00am 9.9 4.0 -5.2 34 5.4 SW 17 22 9 12 1019.6 - 0.0
13/03:30am 10.4 4.2 -5.2 33 5.6 SW 19 26 10 14 1019.5 - 0.0
13/03:00am 10.9 4.6 -5.5 31 5.8 SW 19 24 10 13 1019.7 1019.7 0.0
13/02:30am 11.0 5.1 -5.9 30 6.0 SW 17 24 9 13 1019.3 - 0.0
13/02:00am 11.8 5.3 -6.1 28 6.4 SW 20 28 11 15 1019.5 - 0.0
13/01:30am 11.9 5.4 -5.5 29 6.3 SW 20 30 11 16 1019.6 - 0.0
13/01:00am 11.9 5.6 -5.5 29 6.3 SW 19 26 10 14 1019.9 - 0.0
13/12:30am 11.1 6.4 -5.4 31 5.9 SW 11 15 6 8 1020.3 - 0.0
13/12:00am 12.3 6.8 -5.7 28 6.5 SSW 15 20 8 11 1020.6 1020.6 0.0
 
Date/Time
EST
Temp
°C
App
Temp
°C
Dew
Point
°C
Rel
Hum
%
Delta-T
°C
Wind Press
QNH
hPa
Press
MSL
hPa
Rain since
9am
mm
Dir  Spd
km/h
Gust
km/h
Spd
kts
Gust
kts
12/11:30pm 12.7 6.9 -4.9 29 6.5 SW 17 20 9 11 1020.4 - 0.0
12/11:00pm 14.2 8.4 -5.0 26 7.2 SW 17 22 9 12 1020.4 - 0.0
12/10:30pm 13.6 8.2 -4.5 28 6.8 SW 15 20 8 11 1020.4 - 0.0
12/10:00pm 14.8 9.8 -4.5 26 7.4 SW 13 17 7 9 1020.4 - 0.0
12/09:30pm 15.7 8.9 -4.8 24 7.9 SW 22 28 12 15 1020.3 - 0.0
12/09:00pm 16.6 9.0 -5.2 22 8.3 SSW 26 39 14 21 1019.8 1019.8 0.0
12/08:30pm 17.0 10.4 -3.7 24 8.2 SW 22 30 12 16 1019.3 - 0.0
12/08:00pm 17.5 11.6 -0.7 29 7.7 SSW 20 28 11 15 1018.8 - 0.0
12/07:30pm 16.4 12.1 0.9 35 6.8 SW 13 17 7 9 1018.2 - 0.0
12/07:00pm 18.8 14.4 0.4 29 8.1 SW 13 20 7 11 1017.6 - 0.0
12/06:30pm 19.7 15.2 -0.3 26 8.8 SW 13 19 7 10 1017.0 - 0.0
12/06:00pm 21.0 16.1 -0.3 24 9.4 WSW 15 22 8 12 1016.4 1016.4 0.0
12/05:30pm 22.5 16.9 -0.3 22 10.2 WSW 19 26 10 14 1015.7 - 0.0

Other Formats:

Comma delimited format used in spreadsheet applications
http://www.bom.gov.au/fwo/IDQ60801/IDQ60801.94567.axf

JavaScript Object Notation format (JSON) in row-major order
http://www.bom.gov.au/fwo/IDQ60801/IDQ60801.94567.json